createdAt,value
2019-06-20T00:01:07.203Z,99.90
2019-06-20T00:03:36.284Z,99.90
2019-06-20T00:06:05.061Z,99.90
2019-06-20T00:08:35.666Z,99.90
2019-06-20T00:11:04.379Z,99.90
2019-06-20T00:13:42.257Z,99.90
2019-06-20T00:16:10.961Z,99.90
2019-06-20T00:18:39.595Z,99.90
2019-06-20T00:21:08.303Z,99.90
2019-06-20T00:23:42.985Z,99.90
2019-06-20T00:26:11.617Z,99.90
2019-06-20T00:28:40.244Z,99.90
2019-06-20T00:31:08.971Z,99.90
2019-06-20T00:33:37.583Z,99.90
2019-06-20T00:36:06.352Z,99.90
2019-06-20T00:38:50.089Z,99.90
2019-06-20T00:41:18.906Z,99.90
2019-06-20T00:43:49.508Z,99.90
2019-06-20T00:46:18.131Z,99.90
2019-06-20T00:48:46.833Z,99.90
2019-06-20T00:51:15.544Z,99.90
2019-06-20T00:53:44.165Z,99.90
2019-06-20T00:56:12.849Z,99.90
2019-06-20T00:58:53.415Z,99.90
2019-06-20T01:01:22.053Z,99.90
2019-06-20T01:03:50.748Z,99.90
2019-06-20T01:06:19.389Z,99.90
2019-06-20T01:09:03.487Z,99.90
2019-06-20T01:11:32.122Z,99.90
2019-06-20T01:14:00.730Z,99.90
2019-06-20T01:17:02.901Z,99.90
2019-06-20T01:19:31.576Z,99.90
2019-06-20T01:22:00.222Z,99.90
2019-06-20T01:24:29.055Z,99.90
2019-06-20T01:26:57.706Z,99.90
2019-06-20T01:29:26.298Z,99.90
2019-06-20T01:31:58.020Z,99.90
2019-06-20T01:34:26.722Z,99.90
2019-06-20T01:36:55.486Z,99.90
2019-06-20T01:39:32.612Z,99.90
2019-06-20T01:42:01.439Z,99.90
2019-06-20T01:44:51.293Z,99.90
2019-06-20T01:47:19.932Z,99.90
2019-06-20T01:49:48.689Z,99.90
2019-06-20T01:52:25.499Z,99.90
2019-06-20T01:54:54.136Z,99.90
2019-06-20T01:57:22.843Z,99.90
2019-06-20T01:59:51.491Z,99.90
2019-06-20T02:02:20.165Z,99.90
2019-06-20T02:04:54.110Z,99.90
2019-06-20T02:07:22.726Z,99.90
2019-06-20T02:09:51.374Z,99.90
2019-06-20T02:12:20.081Z,99.90
2019-06-20T02:14:48.722Z,99.90
2019-06-20T02:17:20.602Z,99.90
2019-06-20T02:19:49.398Z,99.90
2019-06-20T02:22:17.998Z,99.90
2019-06-20T02:24:52.769Z,99.90
2019-06-20T02:27:22.133Z,99.90
2019-06-20T02:29:50.952Z,99.90
2019-06-20T02:32:19.565Z,99.90
2019-06-20T02:34:48.253Z,99.90
2019-06-20T02:37:16.974Z,99.90
2019-06-20T02:39:45.622Z,99.90
2019-06-20T02:42:14.497Z,99.90
2019-06-20T02:44:49.044Z,99.90
2019-06-20T02:47:24.935Z,99.90
2019-06-20T02:49:53.745Z,99.90
2019-06-20T02:52:23.446Z,99.90
2019-06-20T02:54:52.124Z,99.90
2019-06-20T02:57:20.737Z,99.90
2019-06-20T02:59:52.424Z,99.90
2019-06-20T03:02:21.026Z,99.90
2019-06-20T03:05:01.672Z,99.90
2019-06-20T03:07:30.281Z,99.90
2019-06-20T03:09:58.918Z,99.90
2019-06-20T03:12:27.607Z,99.90
2019-06-20T03:14:56.237Z,99.90
2019-06-20T03:17:25.364Z,99.90
2019-06-20T03:19:53.995Z,99.90
2019-06-20T03:22:22.610Z,99.90
2019-06-20T03:24:51.264Z,99.90
2019-06-20T03:27:19.951Z,99.90
2019-06-20T03:29:48.689Z,99.90
2019-06-20T03:32:17.445Z,99.90
2019-06-20T03:34:46.084Z,99.90
2019-06-20T03:37:20.891Z,99.90
2019-06-20T03:39:49.601Z,99.90
2019-06-20T03:42:18.234Z,99.90
2019-06-20T03:45:02.078Z,99.90
2019-06-20T03:47:26.654Z,99.90
2019-06-20T03:49:55.282Z,99.90
2019-06-20T03:52:25.976Z,99.90
2019-06-20T03:54:54.612Z,99.90
2019-06-20T03:57:23.227Z,99.90
2019-06-20T03:59:52.052Z,99.90
2019-06-20T04:02:20.730Z,99.90
2019-06-20T04:04:49.340Z,99.90
2019-06-20T04:07:17.981Z,99.90
2019-06-20T04:09:46.593Z,99.90
2019-06-20T04:12:15.229Z,99.90
2019-06-20T04:14:43.851Z,99.90
2019-06-20T04:17:12.499Z,99.90
2019-06-20T04:19:41.188Z,99.90
2019-06-20T04:22:09.837Z,99.90
2019-06-20T04:24:39.986Z,99.90
2019-06-20T04:27:08.749Z,99.90
2019-06-20T04:29:37.370Z,99.90
2019-06-20T04:32:06.386Z,99.90
2019-06-20T04:34:35.251Z,99.90
2019-06-20T04:37:03.888Z,99.90
2019-06-20T04:39:35.538Z,99.90
2019-06-20T04:42:04.139Z,99.90
2019-06-20T04:44:32.807Z,99.90
2019-06-20T04:47:03.050Z,99.90
2019-06-20T04:49:31.814Z,99.90
2019-06-20T04:52:00.406Z,99.90
2019-06-20T04:54:29.020Z,99.90
2019-06-20T04:56:57.816Z,99.90
2019-06-20T04:59:26.423Z,99.90
2019-06-20T05:01:55.107Z,99.90
2019-06-20T05:04:24.839Z,99.90
2019-06-20T05:07:02.469Z,99.90
2019-06-20T05:09:31.107Z,99.90
2019-06-20T05:11:59.887Z,99.90
2019-06-20T05:14:28.648Z,99.90
2019-06-20T05:16:57.244Z,99.90
2019-06-20T05:19:25.909Z,99.90
2019-06-20T05:21:54.580Z,99.90
2019-06-20T05:24:25.555Z,99.90
2019-06-20T05:26:54.521Z,99.90
2019-06-20T05:29:23.156Z,99.90
2019-06-20T05:31:51.953Z,99.90
2019-06-20T05:34:20.657Z,99.90
2019-06-20T05:36:49.661Z,99.90
2019-06-20T05:39:18.450Z,99.90
2019-06-20T05:41:47.063Z,99.90
2019-06-20T05:44:15.669Z,99.90
2019-06-20T05:46:44.420Z,99.90
2019-06-20T05:49:13.020Z,99.90
2019-06-20T05:51:42.548Z,99.90
2019-06-20T05:54:11.209Z,99.90
2019-06-20T05:56:39.893Z,99.90
2019-06-20T05:59:09.493Z,99.90
2019-06-20T06:01:38.195Z,99.90
2019-06-20T06:04:07.843Z,99.90
2019-06-20T06:06:36.474Z,99.90
2019-06-20T06:09:07.265Z,99.90
2019-06-20T06:11:35.899Z,99.90
2019-06-20T06:14:04.658Z,99.90
2019-06-20T06:16:33.268Z,99.90
2019-06-20T06:19:01.894Z,99.90
2019-06-20T06:21:30.496Z,99.90
2019-06-20T06:24:44.780Z,99.90
2019-06-20T06:27:13.398Z,99.90
2019-06-20T06:29:42.034Z,99.90
2019-06-20T06:32:10.815Z,99.90
2019-06-20T06:34:39.500Z,99.90
2019-06-20T06:37:08.130Z,99.90
2019-06-20T06:39:36.849Z,99.90
2019-06-20T06:42:05.633Z,99.90
2019-06-20T06:44:34.462Z,99.90
2019-06-20T06:47:03.081Z,99.90
2019-06-20T06:49:31.830Z,99.90
2019-06-20T06:52:00.580Z,99.90
2019-06-20T06:54:29.175Z,99.90
2019-06-20T06:56:57.876Z,99.90
2019-06-20T06:59:26.504Z,99.90
2019-06-20T07:01:55.287Z,99.90
2019-06-20T07:04:23.994Z,99.90
2019-06-20T07:06:52.637Z,99.90
2019-06-20T07:09:21.238Z,99.90
2019-06-20T07:11:50.151Z,99.90
2019-06-20T07:14:18.829Z,99.90
2019-06-20T07:16:59.675Z,99.90
2019-06-20T07:19:17.801Z,99.90
2019-06-20T07:21:46.613Z,99.90
2019-06-20T07:24:15.224Z,99.90
2019-06-20T07:26:43.936Z,99.80
2019-06-20T07:29:12.581Z,99.70
2019-06-20T07:31:41.358Z,99.60
2019-06-20T07:34:09.965Z,99.40
2019-06-20T07:36:38.585Z,99.00
2019-06-20T07:39:19.397Z,99.60
2019-06-20T07:41:48.013Z,99.10
2019-06-20T07:44:16.632Z,99.10
2019-06-20T07:46:45.350Z,99.90
2019-06-20T07:49:13.952Z,99.40
2019-06-20T07:51:42.632Z,99.50
2019-06-20T07:54:11.270Z,98.70
2019-06-20T07:56:39.987Z,99.10
2019-06-20T07:59:08.694Z,98.50
2019-06-20T08:01:37.397Z,97.80
2019-06-20T08:04:06.145Z,98.10
2019-06-20T08:06:34.854Z,98.40
2019-06-20T08:09:04.590Z,98.60
2019-06-20T08:11:36.338Z,99.00
2019-06-20T08:14:05.394Z,99.50
2019-06-20T08:16:34.140Z,99.90
2019-06-20T08:19:02.911Z,99.90
2019-06-20T08:21:34.810Z,99.90
2019-06-20T08:24:03.565Z,99.90
2019-06-20T08:26:32.250Z,99.90
2019-06-20T08:29:15.837Z,99.90
2019-06-20T08:31:31.978Z,99.90
2019-06-20T08:34:15.858Z,99.10
2019-06-20T08:36:44.478Z,98.10
2019-06-20T08:39:13.128Z,96.20
2019-06-20T08:41:41.870Z,96.10
2019-06-20T08:44:11.975Z,96.50
2019-06-20T08:46:40.595Z,93.80
2019-06-20T08:49:09.320Z,94.30
2019-06-20T08:51:38.076Z,93.20
2019-06-20T08:54:06.856Z,93.80
2019-06-20T08:56:35.571Z,94.20
2019-06-20T08:59:04.845Z,95.30
2019-06-20T09:01:33.716Z,93.60
2019-06-20T09:06:30.956Z,94.20
2019-06-20T09:09:00.079Z,93.60
2019-06-20T09:11:28.776Z,93.70
2019-06-20T09:13:57.510Z,93.90
2019-06-20T09:16:26.100Z,94.70
2019-06-20T09:18:55.325Z,94.20
2019-06-20T09:21:25.152Z,95.10
2019-06-20T09:23:54.172Z,95.00
2019-06-20T09:26:24.026Z,95.50
2019-06-20T09:28:54.032Z,95.40
2019-06-20T09:31:23.289Z,95.40
2019-06-20T09:33:53.542Z,95.20
2019-06-20T09:36:22.289Z,94.80
2019-06-20T09:38:52.073Z,95.50
2019-06-20T09:41:21.289Z,95.70
2019-06-20T09:43:50.078Z,95.00
2019-06-20T09:46:19.975Z,95.10
2019-06-20T09:48:49.317Z,95.50
2019-06-20T09:51:22.025Z,95.50
2019-06-20T09:53:51.851Z,95.50
2019-06-20T09:56:20.668Z,95.70
2019-06-20T09:58:49.625Z,95.90
2019-06-20T10:01:19.452Z,96.20
2019-06-20T10:03:49.009Z,95.80
2019-06-20T10:06:18.534Z,96.00
2019-06-20T10:08:48.294Z,95.50
2019-06-20T10:11:32.241Z,94.10
2019-06-20T10:14:00.866Z,94.40
2019-06-20T10:16:44.847Z,94.10
2019-06-20T10:18:59.842Z,93.70
2019-06-20T10:21:31.594Z,92.30
2019-06-20T10:24:00.210Z,91.50
2019-06-20T10:26:28.983Z,90.30
2019-06-20T10:29:09.782Z,89.30
2019-06-20T10:31:38.553Z,90.60
2019-06-20T10:34:13.385Z,87.60
2019-06-20T10:36:42.076Z,87.00
2019-06-20T10:39:11.928Z,90.00
2019-06-20T10:41:40.788Z,90.80
2019-06-20T10:44:09.575Z,92.10
2019-06-20T10:46:38.251Z,91.60
2019-06-20T10:49:07.027Z,90.50
2019-06-20T10:51:42.374Z,82.00
2019-06-20T10:54:10.667Z,76.40
2019-06-20T10:56:40.464Z,81.40
2019-06-20T10:59:09.793Z,82.90
2019-06-20T11:01:39.873Z,83.50
2019-06-20T11:04:08.901Z,88.10
2019-06-20T11:06:39.887Z,89.30
2019-06-20T11:09:08.890Z,88.40
2019-06-20T11:11:47.119Z,88.80
2019-06-20T11:14:15.935Z,89.30
2019-06-20T11:16:45.205Z,90.10
2019-06-20T11:19:13.962Z,91.20
2019-06-20T11:21:43.212Z,91.50
2019-06-20T11:24:18.567Z,93.30
2019-06-20T11:26:47.978Z,93.90
2019-06-20T11:29:16.942Z,94.90
2019-06-20T11:31:47.804Z,95.50
2019-06-20T11:34:15.910Z,95.40
2019-06-20T11:36:45.139Z,96.10
2019-06-20T11:39:13.905Z,96.20
2019-06-20T11:41:43.672Z,96.30
2019-06-20T11:44:12.475Z,96.30
2019-06-20T11:46:42.598Z,96.90
2019-06-20T11:49:11.320Z,98.10
2019-06-20T11:51:40.128Z,98.70
2019-06-20T11:54:08.952Z,99.90
2019-06-20T11:56:37.573Z,99.90
2019-06-20T11:59:06.290Z,99.90
2019-06-20T12:01:35.065Z,99.90
2019-06-20T12:04:03.747Z,99.90
2019-06-20T12:06:32.458Z,99.90
2019-06-20T12:09:01.081Z,99.90
2019-06-20T12:11:29.826Z,99.90
2019-06-20T12:13:58.471Z,99.90
2019-06-20T12:16:27.183Z,99.90
2019-06-20T12:18:55.836Z,99.90
2019-06-20T12:21:24.513Z,99.90
2019-06-20T12:23:53.304Z,99.20
2019-06-20T12:26:21.965Z,98.50
2019-06-20T12:28:50.601Z,92.80
2019-06-20T12:31:22.377Z,89.60
2019-06-20T12:33:50.990Z,90.00
2019-06-20T12:36:19.704Z,82.10
2019-06-20T12:38:48.427Z,82.70
2019-06-20T12:41:17.116Z,84.00
2019-06-20T12:43:46.358Z,84.30
2019-06-20T12:46:16.121Z,88.90
2019-06-20T12:48:45.043Z,93.00
2019-06-20T12:51:13.965Z,88.30
2019-06-20T12:53:44.067Z,87.20
2019-06-20T12:56:12.930Z,91.50
2019-06-20T12:58:42.229Z,91.70
2019-06-20T13:01:11.088Z,84.80
2019-06-20T13:03:40.394Z,88.40
2019-06-20T13:06:09.499Z,91.50
2019-06-20T13:08:40.202Z,93.30
2019-06-20T13:11:08.746Z,92.60
2019-06-20T13:13:38.830Z,89.00
2019-06-20T13:16:08.079Z,87.30
2019-06-20T13:18:36.707Z,83.00
2019-06-20T13:21:05.504Z,84.80
2019-06-20T13:23:34.206Z,72.80
2019-06-20T13:26:02.869Z,67.00
2019-06-20T13:28:31.644Z,63.80
2019-06-20T13:31:00.286Z,62.80
2019-06-20T13:33:28.881Z,64.50
2019-06-20T13:35:57.645Z,63.40
2019-06-20T13:38:26.324Z,68.50
2019-06-20T13:40:54.933Z,72.40
2019-06-20T13:43:24.590Z,72.50
2019-06-20T13:45:54.227Z,67.90
2019-06-20T13:48:26.054Z,67.70
2019-06-20T13:50:54.642Z,67.20
2019-06-20T13:53:23.248Z,65.60
2019-06-20T13:55:51.928Z,68.50
2019-06-20T13:58:20.645Z,68.60
2019-06-20T14:00:50.975Z,67.80
2019-06-20T14:03:19.826Z,63.30
2019-06-20T14:05:49.864Z,60.00
2019-06-20T14:08:19.598Z,60.50
2019-06-20T14:10:49.746Z,62.30
2019-06-20T14:13:24.001Z,62.60
2019-06-20T14:15:53.710Z,60.50
2019-06-20T14:18:22.441Z,59.80
2019-06-20T14:20:51.129Z,59.70
2019-06-20T14:23:19.874Z,59.90
2019-06-20T14:25:48.807Z,62.20
2019-06-20T14:28:17.495Z,62.60
2019-06-20T14:30:48.335Z,59.50
2019-06-20T14:33:17.174Z,58.50
2019-06-20T14:35:47.374Z,63.70
2019-06-20T14:38:16.134Z,58.80
2019-06-20T14:40:45.334Z,59.40
2019-06-20T14:43:14.154Z,60.40
2019-06-20T14:45:43.816Z,63.60
2019-06-20T14:48:13.181Z,68.00
2019-06-20T14:50:43.828Z,69.60
2019-06-20T14:53:13.040Z,70.10
2019-06-20T14:55:41.644Z,71.10
2019-06-20T14:58:11.439Z,71.00
2019-06-20T15:00:40.121Z,81.00
2019-06-20T15:03:09.839Z,83.80
2019-06-20T15:05:38.512Z,89.20
2019-06-20T15:08:07.205Z,90.40
2019-06-20T15:10:35.841Z,91.70
2019-06-20T15:13:04.524Z,91.20
2019-06-20T15:15:33.237Z,90.80
2019-06-20T15:18:01.915Z,92.00
2019-06-20T15:20:30.634Z,91.90
2019-06-20T15:23:00.391Z,91.90
2019-06-20T15:25:29.357Z,92.90
2019-06-20T15:27:58.080Z,92.80
2019-06-20T15:30:26.710Z,93.40
2019-06-20T15:33:07.495Z,92.90
2019-06-20T15:35:27.094Z,94.10
2019-06-20T15:37:57.467Z,93.70
2019-06-20T15:40:26.344Z,93.20
2019-06-20T15:42:55.449Z,93.00
2019-06-20T15:45:25.311Z,92.60
2019-06-20T15:47:54.089Z,91.10
2019-06-20T15:50:22.772Z,86.40
2019-06-20T15:52:51.406Z,85.60
2019-06-20T15:55:20.457Z,85.60
2019-06-20T15:57:49.171Z,84.70
2019-06-20T16:00:18.825Z,88.30
2019-06-20T16:02:47.456Z,82.30
2019-06-20T16:05:16.310Z,87.80
2019-06-20T16:07:44.941Z,86.40
2019-06-20T16:10:14.101Z,87.10
2019-06-20T16:12:42.785Z,84.70
2019-06-20T16:15:13.831Z,88.60
2019-06-20T16:17:42.517Z,87.20
2019-06-20T16:20:11.380Z,84.50
2019-06-20T16:22:40.030Z,86.20
2019-06-20T16:25:08.811Z,86.20
2019-06-20T16:27:37.532Z,88.20
2019-06-20T16:30:07.952Z,89.80
2019-06-20T16:32:36.657Z,89.70
2019-06-20T16:35:07.436Z,90.40
2019-06-20T16:37:36.291Z,90.20
2019-06-20T16:40:09.083Z,90.20
2019-06-20T16:42:37.765Z,91.00
2019-06-20T16:45:08.503Z,91.00
2019-06-20T16:47:37.385Z,91.70
2019-06-20T16:50:11.481Z,91.30
2019-06-20T16:52:40.194Z,91.50
2019-06-20T16:55:09.256Z,91.80
2019-06-20T16:57:37.964Z,91.50
2019-06-20T17:00:08.545Z,92.30
2019-06-20T17:02:37.333Z,92.40
2019-06-20T17:05:07.323Z,92.20
2019-06-20T17:07:36.093Z,92.80
2019-06-20T17:10:07.914Z,92.90
2019-06-20T17:12:36.689Z,93.90
2019-06-20T17:15:06.673Z,93.00
2019-06-20T17:17:35.427Z,93.30
2019-06-20T17:20:06.494Z,92.40
2019-06-20T17:22:35.176Z,92.40
2019-06-20T17:25:19.483Z,92.70
2019-06-20T17:27:48.081Z,93.10
2019-06-20T17:30:19.053Z,92.60
2019-06-20T17:32:47.792Z,92.20
2019-06-20T17:35:17.244Z,91.70
2019-06-20T17:37:46.025Z,92.00
2019-06-20T17:40:16.578Z,91.20
2019-06-20T17:42:46.265Z,91.60
2019-06-20T17:45:15.733Z,91.40
2019-06-20T17:47:44.415Z,91.00
2019-06-20T17:50:13.584Z,91.30
2019-06-20T17:52:42.564Z,91.90
2019-06-20T17:55:11.817Z,92.50
2019-06-20T17:57:40.525Z,92.50
2019-06-20T18:00:15.688Z,92.20
2019-06-20T18:02:44.390Z,92.90
2019-06-20T18:05:15.762Z,92.50
2019-06-20T18:07:44.472Z,92.20
2019-06-20T18:10:13.648Z,92.40
2019-06-20T18:12:42.414Z,92.10
2019-06-20T18:15:11.522Z,91.40
2019-06-20T18:17:40.240Z,90.90
2019-06-20T18:20:09.499Z,90.90
2019-06-20T18:22:39.153Z,89.90
2019-06-20T18:25:08.534Z,88.90
2019-06-20T18:27:37.208Z,90.00
2019-06-20T18:30:07.774Z,89.10
2019-06-20T18:32:36.542Z,88.40
2019-06-20T18:35:08.873Z,89.60
2019-06-20T18:37:37.550Z,89.90
2019-06-20T18:40:10.768Z,89.40
2019-06-20T18:42:39.813Z,89.00
2019-06-20T18:45:11.323Z,84.50
2019-06-20T18:47:40.002Z,83.20
2019-06-20T18:50:10.372Z,81.90
2019-06-20T18:52:51.536Z,81.50
2019-06-20T18:55:11.847Z,82.40
2019-06-20T18:57:40.591Z,83.80
2019-06-20T19:00:11.505Z,83.70
2019-06-20T19:02:40.248Z,82.70
2019-06-20T19:05:11.158Z,83.90
2019-06-20T19:07:39.896Z,84.70
2019-06-20T19:10:10.624Z,85.00
2019-06-20T19:12:39.481Z,86.70
2019-06-20T19:15:10.155Z,87.80
2019-06-20T19:17:38.898Z,88.80
2019-06-20T19:20:09.661Z,89.60
2019-06-20T19:22:38.282Z,90.40
2019-06-20T19:25:07.973Z,91.30
2019-06-20T19:27:45.979Z,91.80
2019-06-20T19:30:08.619Z,92.10
2019-06-20T19:32:37.328Z,92.40
2019-06-20T19:35:10.231Z,92.60
2019-06-20T19:37:38.235Z,92.70
2019-06-20T19:40:09.708Z,92.60
2019-06-20T19:42:38.547Z,92.60
2019-06-20T19:45:11.861Z,92.80
2019-06-20T19:47:41.101Z,92.50
2019-06-20T19:50:10.385Z,92.70
2019-06-20T19:52:39.703Z,92.90
2019-06-20T19:55:08.789Z,92.80
2019-06-20T19:57:37.462Z,93.30
2019-06-20T20:00:09.572Z,93.30
2019-06-20T20:02:38.279Z,93.70
2019-06-20T20:05:18.526Z,94.40
2019-06-20T20:07:44.933Z,94.50
2019-06-20T20:10:15.401Z,94.80
2019-06-20T20:12:44.013Z,95.30
2019-06-20T20:15:27.853Z,95.30
2019-06-20T20:17:56.461Z,95.40
2019-06-20T20:20:25.138Z,95.90
2019-06-20T20:22:53.841Z,95.90
2019-06-20T20:25:22.614Z,96.00
2019-06-20T20:27:51.274Z,96.10
2019-06-20T20:30:20.225Z,96.30
2019-06-20T20:32:48.949Z,96.20
2019-06-20T20:35:31.544Z,96.40
2019-06-20T20:37:48.051Z,96.70
2019-06-20T20:40:18.535Z,96.60
2019-06-20T20:42:47.140Z,96.80
2019-06-20T20:45:16.983Z,97.40
2019-06-20T20:47:45.677Z,98.00
2019-06-20T20:50:14.766Z,97.80
2019-06-20T20:52:43.423Z,97.60
2019-06-20T20:55:12.564Z,97.40
2019-06-20T20:57:53.338Z,97.30
2019-06-20T21:00:24.591Z,97.40
2019-06-20T21:02:54.053Z,97.70
2019-06-20T21:05:22.830Z,98.00
2019-06-20T21:07:51.601Z,97.80
2019-06-20T21:10:20.733Z,97.80
2019-06-20T21:12:49.430Z,97.90
2019-06-20T21:15:18.311Z,98.20
2019-06-20T21:17:46.986Z,98.40
2019-06-20T21:20:16.031Z,98.10
2019-06-20T21:22:44.826Z,98.00
2019-06-20T21:25:13.979Z,98.20
2019-06-20T21:27:42.709Z,98.60
2019-06-20T21:30:11.991Z,98.60
2019-06-20T21:32:41.753Z,98.70
2019-06-20T21:35:11.810Z,99.00
2019-06-20T21:37:40.510Z,99.40
2019-06-20T21:40:09.998Z,99.30
2019-06-20T21:42:38.636Z,99.30
2019-06-20T21:45:08.578Z,99.40
2019-06-20T21:47:37.338Z,99.10
2019-06-20T21:50:09.930Z,99.10
2019-06-20T21:52:39.019Z,99.70
2019-06-20T21:55:07.986Z,99.60
2019-06-20T21:57:42.634Z,99.70
2019-06-20T22:00:27.984Z,99.50
2019-06-20T22:02:56.861Z,99.40
2019-06-20T22:05:26.478Z,99.40
2019-06-20T22:07:59.738Z,99.40
2019-06-20T22:10:29.415Z,99.40
2019-06-20T22:12:58.217Z,99.50
2019-06-20T22:15:26.970Z,99.10
2019-06-20T22:17:55.710Z,98.90
2019-06-20T22:20:24.866Z,98.30
2019-06-20T22:22:53.615Z,98.60
2019-06-20T22:25:22.890Z,98.50
2019-06-20T22:28:36.249Z,98.40
2019-06-20T22:31:36.120Z,98.00
2019-06-20T22:34:05.082Z,98.40
2019-06-20T22:36:40.098Z,98.10
2019-06-20T22:39:05.896Z,98.20
2019-06-20T22:41:34.590Z,98.30
2019-06-20T22:44:03.381Z,98.50
2019-06-20T22:46:31.985Z,99.00
2019-06-20T22:49:00.714Z,99.30
2019-06-20T22:51:29.522Z,99.20
2019-06-20T22:53:58.277Z,98.90
2019-06-20T22:56:26.913Z,99.00
2019-06-20T22:58:55.512Z,99.00
2019-06-20T23:01:24.374Z,98.80
2019-06-20T23:03:53.130Z,98.90
2019-06-20T23:06:21.805Z,99.00
2019-06-20T23:08:50.621Z,99.00
2019-06-20T23:11:19.297Z,99.10
2019-06-20T23:13:48.014Z,99.10
2019-06-20T23:16:16.622Z,98.90
2019-06-20T23:18:45.274Z,99.00
2019-06-20T23:21:13.884Z,99.20
2019-06-20T23:23:42.593Z,99.10
2019-06-20T23:26:12.264Z,99.00
2019-06-20T23:28:40.900Z,99.20
2019-06-20T23:31:09.537Z,99.50
2019-06-20T23:33:38.251Z,99.60
2019-06-20T23:36:06.994Z,99.80
2019-06-20T23:38:35.675Z,99.90
2019-06-20T23:41:04.432Z,99.90
2019-06-20T23:43:33.038Z,99.90
2019-06-20T23:46:01.685Z,99.90
2019-06-20T23:48:30.353Z,99.90
2019-06-20T23:50:59.000Z,99.90
2019-06-20T23:53:28.351Z,99.90
2019-06-20T23:55:57.112Z,99.90
2019-06-20T23:58:25.733Z,99.90
